PATL/TLJ METAR and TAF weather

Enter ICAO airport designator
Station Type Date Time Source
PATL METAR 2021/03/06 04:55 UTC NOAA

PATL 060455Z AUTO 03001KT 10SM FEW020 SCT140 M10/M12 A2961 RMK AO2 SLP055 T10981116


Station Type Date Time Source
PATL Decoded METAR 2021/03/06 04:55 UTC NOAA

Takotna, Tatalina LRRS Airport, AK, United States (PATL) 62-54N 155-59W
Mar 05, 2021 - 11:55 PM EST / 2021.03.06 0455 UTC
Wind: from the NNE (030 degrees) at 1 MPH (1 KT):0
Visibility: 10 mile(s):0
Sky conditions: partly cloudy
Temperature: 14.4 F (-9.8 C)
Dew Point: 11.1 F (-11.6 C)
Relative Humidity: 86%
Pressure (altimeter): 29.61 in. Hg (1002 hPa)
ob: PATL 060455Z AUTO 03001KT 10SM FEW020 SCT140 M10/M12 A2961 RMK AO2 SLP055 T10981116
cycle: 5

Station Type Date Time Source
PATL TAF 2012/01/12 14:06 UTC NOAA

TAF PATL 1214/1320 VRB06KT 9999 FEW050 SCT110 QNH2998INS TM26/1300Z TM32/1315Z

Example: see airport list